Time;durP1;ratioP1;P1;durP2;ratioP2;P2;SDS_P1;SDS_P2;PMS_P1;PMS_P2;Temp;Humidity;BMP_temperature;BMP_pressure;BME280_temperature;BME280_humidity;BME280_pressure;Samples;Min_cycle;Max_cycle;Signal;HPM_P1;HPM_P2
2023/02/02 00:01:43;;;;;;;7.50;4.00;;;;;;;1.25;100.00;97443.34;107093;1272;137857;-72
2023/02/02 00:04:23;;;;;;;9.40;3.80;;;;;;;1.25;100.00;97444.33;106817;1283;22535;-71
2023/02/02 00:06:50;;;;;;;;;;;;;;;1.25;100.00;97448.38;106324;1283;138551;-72
2023/02/02 00:09:19;;;;;;;6.30;3.40;;;;;;;1.26;100.00;97447.17;106510;1284;25406;-72
2023/02/02 00:11:47;;;;;;;5.40;3.40;;;;;;;1.26;100.00;97451.89;106256;1268;140380;-72
2023/02/02 00:14:14;;;;;;;6.50;3.50;;;;;;;1.26;100.00;97455.31;106674;1283;22811;-72
2023/02/02 00:16:45;;;;;;;8.20;3.80;;;;;;;1.26;100.00;97453.74;106561;1283;22560;-72
2023/02/02 00:19:15;;;;;;;8.20;4.00;;;;;;;1.25;100.00;97456.35;106866;1276;138764;-71
2023/02/02 00:21:42;;;;;;;6.00;3.90;;;;;;;1.26;100.00;97460.15;106715;1265;23395;-72
2023/02/02 00:24:11;;;;;;;4.50;3.40;;;;;;;1.25;100.00;97457.38;106491;1282;138534;-72
2023/02/02 00:26:40;;;;;;;10.40;3.70;;;;;;;1.23;99.94;97459.33;106708;1280;22561;-72
2023/02/02 00:29:29;;;;;;;4.20;2.90;;;;;;;1.20;99.99;97461.72;106629;1282;25352;-72
2023/02/02 00:31:56;;;;;;;6.60;3.60;;;;;;;1.17;99.99;97462.75;106532;1283;22671;-71
2023/02/02 00:34:24;;;;;;;8.80;3.60;;;;;;;1.13;99.97;97461.57;106520;1284;22543;-72
2023/02/02 00:36:51;;;;;;;8.30;3.30;;;;;;;1.09;99.95;97461.16;106420;1283;137833;-71
2023/02/02 00:39:21;;;;;;;4.70;2.80;;;;;;;1.04;99.82;97452.55;106520;1283;22561;-71
2023/02/02 00:41:49;;;;;;;4.80;2.70;;;;;;;0.98;99.71;97448.88;106491;1273;138405;-71
2023/02/02 00:47:02;;;;;;;3.00;2.60;;;;;;;0.83;99.36;97457.52;106598;1265;25579;-71
2023/02/02 00:49:30;;;;;;;3.50;2.30;;;;;;;0.76;99.48;97459.17;107576;1267;141343;-72
2023/02/02 00:51:59;;;;;;;4.00;2.90;;;;;;;0.68;99.30;97462.39;106900;1266;25482;-71
2023/02/02 00:54:26;;;;;;;3.30;2.50;;;;;;;0.63;99.53;97468.45;106471;1276;137869;-71
2023/02/02 00:56:53;;;;;;;4.70;2.10;;;;;;;0.58;99.46;97471.45;106529;1275;25331;-72
2023/02/02 00:59:20;;;;;;;3.10;2.30;;;;;;;0.51;99.48;97471.46;107351;1277;25202;-72
2023/02/02 01:01:47;;;;;;;2.40;1.70;;;;;;;0.44;99.50;97473.09;106475;1265;137839;-71
2023/02/02 01:04:14;;;;;;;3.70;2.00;;;;;;;0.38;99.50;97474.78;107697;1276;23328;-72
2023/02/02 01:06:41;;;;;;;3.80;2.10;;;;;;;0.32;99.45;97469.84;106608;1276;138353;-72
2023/02/02 01:09:08;;;;;;;3.80;2.40;;;;;;;0.28;99.61;97478.10;106578;1259;23024;-71
2023/02/02 01:11:35;;;;;;;3.80;2.20;;;;;;;0.23;99.85;97474.27;106428;1264;137987;-72
2023/02/02 01:14:03;;;;;;;3.40;1.90;;;;;;;0.19;99.90;97475.83;106657;1275;22669;-72
2023/02/02 01:16:30;;;;;;;2.70;1.70;;;;;;;0.15;99.91;97483.89;106602;1280;22624;-71
2023/02/02 01:18:57;;;;;;;2.40;1.90;;;;;;;0.11;99.98;97480.45;106444;1280;137825;-72
2023/02/02 01:21:24;;;;;;;3.20;2.20;;;;;;;0.08;100.00;97476.83;106550;1260;22892;-72
2023/02/02 01:23:51;;;;;;;3.30;2.40;;;;;;;0.05;100.00;97486.33;106448;1276;138397;-72
2023/02/02 01:26:18;;;;;;;2.30;2.00;;;;;;;0.03;100.00;97487.86;107128;1276;25288;-72
2023/02/02 01:28:45;;;;;;;3.00;2.10;;;;;;;-0.00;100.00;97487.15;106560;1279;23904;-72
2023/02/02 01:31:16;;;;;;;2.90;2.10;;;;;;;-0.03;100.00;97490.31;107584;1275;138806;-72
2023/02/02 01:33:45;;;;;;;4.40;2.70;;;;;;;-0.05;100.00;97490.80;106940;1273;22579;-72
2023/02/02 01:36:15;;;;;;;3.10;2.30;;;;;;;-0.07;100.00;97494.23;106407;1283;138181;-71
2023/02/02 01:38:43;;;;;;;3.80;2.80;;;;;;;-0.08;100.00;97494.09;106543;1284;22550;-72
2023/02/02 01:41:16;;;;;;;3.90;2.40;;;;;;;-0.10;100.00;97498.73;106501;1283;26750;-71
2023/02/02 01:43:43;;;;;;;4.40;3.20;;;;;;;-0.11;100.00;97503.54;106614;1282;138223;-71
2023/02/02 01:46:18;;;;;;;4.00;3.20;;;;;;;-0.12;100.00;97501.39;106573;1282;25027;-71
2023/02/02 01:48:58;;;;;;;4.80;2.70;;;;;;;-0.13;100.00;97507.89;106735;1282;138223;-71
2023/02/02 01:51:37;;;;;;;5.90;3.20;;;;;;;-0.13;100.00;97507.80;106536;1282;22589;-71
2023/02/02 01:54:09;;;;;;;6.40;2.90;;;;;;;-0.13;100.00;97511.17;106439;1265;139106;-71
2023/02/02 01:56:43;;;;;;;4.10;3.00;;;;;;;-0.13;100.00;97514.85;106605;1284;23300;-71
2023/02/02 01:59:13;;;;;;;6.50;4.30;;;;;;;-0.13;100.00;97517.58;106822;1283;24369;-71
2023/02/02 02:01:40;;;;;;;5.70;4.00;;;;;;;-0.12;100.00;97513.90;106425;1283;139191;-71
2023/02/02 02:04:07;;;;;;;4.80;3.40;;;;;;;-0.12;100.00;97513.83;106745;1265;22568;-71
2023/02/02 02:06:34;;;;;;;5.00;3.60;;;;;;;-0.12;100.00;97516.83;106490;1282;138692;-71
2023/02/02 02:09:04;;;;;;;6.10;3.60;;;;;;;-0.10;100.00;97520.59;106522;1272;24333;-71
2023/02/02 02:11:33;;;;;;;4.60;3.40;;;;;;;-0.08;100.00;97523.73;106440;1281;138752;-71
2023/02/02 02:17:13;;;;;;;7.20;4.00;;;;;;;-0.07;100.00;97526.55;106692;1283;24770;-71
2023/02/02 02:29:15;;;;;;;5.80;3.70;;;;;;;-0.05;100.00;97541.02;106545;1282;25472;-71
2023/02/02 02:32:01;;;;;;;5.60;4.20;;;;;;;-0.04;100.00;97547.23;106652;1277;139766;-71
2023/02/02 02:34:37;;;;;;;5.50;4.20;;;;;;;-0.04;100.00;97546.37;106327;1265;25328;-71
2023/02/02 02:37:22;;;;;;;5.60;4.80;;;;;;;-0.04;100.00;97553.09;106648;1284;139081;-71
2023/02/02 02:40:22;;;;;;;7.60;4.80;;;;;;;-0.03;100.00;97554.61;106279;1267;25570;-71
2023/02/02 02:42:53;;;;;;;;;;;;;;;-0.01;100.00;97554.71;106178;1284;138826;-72
2023/02/02 02:45:22;;;;;;;6.10;4.50;;;;;;;-0.01;100.00;97560.35;106397;1268;25472;-71
2023/02/02 02:47:51;;;;;;;8.20;5.20;;;;;;;0.01;100.00;97561.64;106396;1283;138438;-71
2023/02/02 02:50:19;;;;;;;10.30;5.50;;;;;;;0.02;100.00;97565.22;106417;1284;22649;-71
2023/02/02 02:52:54;;;;;;;12.30;6.50;;;;;;;0.03;100.00;97568.98;106443;1283;24064;-71
2023/02/02 02:55:24;;;;;;;8.60;5.10;;;;;;;0.04;100.00;97568.81;106073;1269;139192;-71
2023/02/02 02:58:03;;;;;;;11.80;4.90;;;;;;;0.05;100.00;97569.80;106358;1284;22665;-71
2023/02/02 03:00:45;;;;;;;11.30;5.50;;;;;;;0.06;100.00;97574.10;106195;1284;138200;-71
2023/02/02 03:03:49;;;;;;;9.20;5.50;;;;;;;0.07;100.00;97577.43;106275;1266;22540;-71
2023/02/02 03:07:12;;;;;;;6.80;5.20;;;;;;;0.08;100.00;97583.95;106323;1283;139800;-71
2023/02/02 03:09:42;;;;;;;9.30;5.00;;;;;;;0.08;100.00;97584.27;106666;1282;26644;-71
2023/02/02 03:12:09;;;;;;;8.60;4.60;;;;;;;0.08;100.00;97584.85;106441;1282;138735;-71
2023/02/02 03:14:38;;;;;;;10.10;5.60;;;;;;;0.08;100.00;97585.83;106417;1267;24095;-71
2023/02/02 03:17:05;;;;;;;8.40;4.80;;;;;;;0.09;100.00;97584.52;106636;1283;24395;-71
2023/02/02 03:19:32;;;;;;;6.50;4.80;;;;;;;0.09;100.00;97587.32;106300;1284;138010;-71
2023/02/02 03:21:59;;;;;;;8.20;5.70;;;;;;;0.10;100.00;97590.17;106416;1283;24497;-71
2023/02/02 03:24:26;;;;;;;11.10;6.00;;;;;;;0.12;100.00;97593.71;106286;1261;138927;-71
2023/02/02 03:26:53;;;;;;;13.10;6.40;;;;;;;0.13;100.00;97596.36;106498;1282;22687;-71
2023/02/02 03:29:19;;;;;;;10.40;7.00;;;;;;;0.15;100.00;97596.37;106452;1282;25287;-71
2023/02/02 03:31:47;;;;;;;12.60;7.50;;;;;;;0.16;100.00;97596.52;106347;1282;138513;-71
2023/02/02 03:34:14;;;;;;;10.30;6.20;;;;;;;0.18;100.00;97597.57;106417;1276;22617;-71
2023/02/02 03:36:40;;;;;;;10.70;7.20;;;;;;;0.20;100.00;97596.84;106312;1264;138458;-71
2023/02/02 03:39:07;;;;;;;8.70;5.60;;;;;;;0.21;100.00;97595.41;106418;1283;22537;-71
2023/02/02 03:41:34;;;;;;;14.80;7.80;;;;;;;0.23;100.00;97599.25;106488;1279;139279;-72
2023/02/02 03:44:01;;;;;;;16.60;7.50;;;;;;;0.25;100.00;97602.45;106509;1284;22584;-71
2023/02/02 03:46:28;;;;;;;14.70;7.80;;;;;;;0.26;100.00;97607.61;106473;1269;25288;-71
2023/02/02 03:48:55;;;;;;;18.40;7.70;;;;;;;0.27;100.00;97609.84;106381;1282;138538;-71
2023/02/02 03:51:22;;;;;;;13.40;7.70;;;;;;;0.28;100.00;97601.10;106433;1282;22558;-71
2023/02/02 03:53:48;;;;;;;16.40;7.20;;;;;;;0.29;100.00;97602.80;106364;1282;139713;-71
2023/02/02 03:56:18;;;;;;;19.30;7.70;;;;;;;0.30;100.00;97605.24;106420;1264;22585;-71
2023/02/02 03:58:46;;;;;;;13.50;7.70;;;;;;;0.32;100.00;97598.44;106536;1283;22560;-71
2023/02/02 04:01:13;;;;;;;11.70;6.80;;;;;;;0.33;100.00;97603.23;106305;1283;139722;-71
2023/02/02 04:03:41;;;;;;;16.30;7.90;;;;;;;0.35;100.00;97604.52;106251;1284;206749;-71
2023/02/02 04:06:08;;;;;;;13.90;7.30;;;;;;;0.35;100.00;97604.96;106353;1269;138556;-71
2023/02/02 04:08:35;;;;;;;21.40;8.40;;;;;;;0.36;100.00;97602.05;106713;1272;24276;-71
2023/02/02 04:11:02;;;;;;;19.20;8.80;;;;;;;0.36;100.00;97602.66;106449;1282;22540;-71
2023/02/02 04:13:29;;;;;;;15.00;8.50;;;;;;;0.36;100.00;97608.19;106320;1283;140564;-71
2023/02/02 04:16:00;;;;;;;16.10;8.60;;;;;;;0.36;100.00;97605.96;106382;1276;24394;-71
2023/02/02 04:18:27;;;;;;;16.10;8.20;;;;;;;0.34;100.00;97602.66;106184;1284;139284;-71
2023/02/02 04:20:59;;;;;;;15.20;8.40;;;;;;;0.33;100.00;97603.48;106388;1283;22559;-71
2023/02/02 04:23:27;;;;;;;17.70;9.10;;;;;;;0.32;100.00;97604.00;106406;1284;22661;-71
2023/02/02 04:25:55;;;;;;;14.40;8.90;;;;;;;0.31;100.00;97605.98;106311;1264;138177;-71
2023/02/02 04:28:22;;;;;;;14.30;8.00;;;;;;;0.30;100.00;97601.88;106382;1284;22817;-71
2023/02/02 04:30:51;;;;;;;16.10;8.60;;;;;;;0.29;100.00;97603.63;106369;1283;139312;-71
2023/02/02 04:33:18;;;;;;;18.30;9.00;;;;;;;0.29;100.00;97607.45;106516;1283;22557;-71
2023/02/02 04:35:45;;;;;;;14.70;7.90;;;;;;;0.29;100.00;97607.75;106401;1261;138836;-71
2023/02/02 04:38:12;;;;;;;14.40;8.70;;;;;;;0.30;100.00;97608.98;106442;1282;22560;-71
2023/02/02 04:40:42;;;;;;;17.90;8.60;;;;;;;0.31;100.00;97602.11;106573;1282;22807;-71
2023/02/02 04:43:09;;;;;;;18.60;10.50;;;;;;;0.32;100.00;97603.71;106711;1282;139029;-71
2023/02/02 04:45:36;;;;;;;15.50;9.30;;;;;;;0.34;100.00;97609.21;106456;1282;22541;-71
2023/02/02 04:48:04;;;;;;;18.10;10.00;;;;;;;0.36;100.00;97607.94;106303;1264;138881;-71
2023/02/02 04:50:31;;;;;;;14.10;6.90;;;;;;;0.36;100.00;97607.16;106262;1283;22536;-71
2023/02/02 04:52:58;;;;;;;17.40;8.10;;;;;;;0.37;100.00;97601.68;106264;1283;22958;-71
2023/02/02 04:55:25;;;;;;;18.50;9.90;;;;;;;0.39;100.00;97602.02;106164;1284;138763;-71
2023/02/02 04:57:52;;;;;;;16.10;8.40;;;;;;;0.41;100.00;97601.94;106478;1263;24211;-71
2023/02/02 05:00:19;;;;;;;12.00;8.50;;;;;;;0.43;100.00;97603.52;106489;1277;138231;-72
2023/02/02 05:02:46;;;;;;;14.80;7.50;;;;;;;0.44;100.00;97605.45;106880;1275;25729;-71
2023/02/02 05:05:13;;;;;;;14.60;7.50;;;;;;;0.45;100.00;97602.65;106430;1280;22545;-71
2023/02/02 05:07:40;;;;;;;13.00;7.40;;;;;;;0.45;100.00;97603.30;106516;1263;138625;-72
2023/02/02 05:10:08;;;;;;;16.80;7.60;;;;;;;0.47;100.00;97608.91;106414;1284;22534;-71
2023/02/02 05:12:35;;;;;;;19.90;7.70;;;;;;;0.49;100.00;97610.65;106442;1270;138711;-72
2023/02/02 05:15:04;;;;;;;16.10;6.40;;;;;;;0.50;100.00;97614.30;106420;1283;22547;-71
2023/02/02 05:17:31;;;;;;;13.50;5.50;;;;;;;0.51;100.00;97614.84;106313;1264;140344;-72
2023/02/02 05:19:58;;;;;;;11.60;6.20;;;;;;;0.52;100.00;97615.08;106498;1282;24007;-71
2023/02/02 05:22:25;;;;;;;11.90;5.90;;;;;;;0.54;100.00;97619.70;106455;1282;22561;-71
2023/02/02 05:24:52;;;;;;;12.10;6.00;;;;;;;0.54;100.00;97620.29;106379;1282;139462;-71
2023/02/02 05:27:20;;;;;;;15.50;6.00;;;;;;;0.56;100.00;97616.11;106414;1281;23907;-71
2023/02/02 05:29:47;;;;;;;12.50;6.20;;;;;;;0.57;100.00;97619.63;106247;1275;138865;-71
2023/02/02 05:32:14;;;;;;;14.10;5.00;;;;;;;0.58;100.00;97616.99;106350;1284;22657;-71
2023/02/02 05:34:41;;;;;;;10.00;4.20;;;;;;;0.59;100.00;97617.83;106359;1284;22550;-71
2023/02/02 05:37:08;;;;;;;9.70;4.20;;;;;;;0.59;100.00;97615.36;106363;1263;140735;-71
2023/02/02 05:39:35;;;;;;;11.00;5.30;;;;;;;0.59;100.00;97616.17;106488;1282;22628;-71
2023/02/02 05:42:02;;;;;;;16.90;5.20;;;;;;;0.59;100.00;97620.95;106440;1282;139510;-72
2023/02/02 05:44:29;;;;;;;14.20;5.30;;;;;;;0.60;100.00;97624.41;106577;1282;23034;-71
2023/02/02 05:46:56;;;;;;;15.80;5.40;;;;;;;0.61;100.00;97623.43;106486;1261;25402;-72
2023/02/02 05:49:22;;;;;;;14.20;5.30;;;;;;;0.61;100.00;97622.67;106320;1264;139952;-71
2023/02/02 05:51:53;;;;;;;16.90;6.60;;;;;;;0.62;100.00;97620.62;106440;1283;22559;-71
2023/02/02 05:54:20;;;;;;;19.40;7.20;;;;;;;0.61;100.00;97618.77;106303;1283;139468;-72
2023/02/02 05:56:49;;;;;;;16.20;5.40;;;;;;;0.61;100.00;97620.71;106419;1283;25237;-71
2023/02/02 05:59:17;;;;;;;12.30;5.00;;;;;;;0.61;100.00;97618.23;106578;1282;22560;-71
2023/02/02 06:01:45;;;;;;;12.50;4.60;;;;;;;0.60;100.00;97616.54;106384;1282;139629;-72
2023/02/02 06:04:13;;;;;;;15.80;4.50;;;;;;;0.60;100.00;97616.55;106592;1282;25277;-71
2023/02/02 06:06:41;;;;;;;12.00;4.00;;;;;;;0.59;100.00;97619.50;107058;1272;139102;-72
2023/02/02 06:09:09;;;;;;;12.30;4.80;;;;;;;0.59;100.00;97612.91;106674;1264;27653;-72
2023/02/02 06:11:38;;;;;;;13.50;3.60;;;;;;;0.60;100.00;97610.03;106545;1283;138821;-72
2023/02/02 06:14:06;;;;;;;14.90;4.50;;;;;;;0.60;100.00;97603.88;106694;1281;22588;-72
2023/02/02 06:16:33;;;;;;;11.30;4.40;;;;;;;0.60;100.00;97603.84;106565;1283;25347;-72
2023/02/02 06:19:00;;;;;;;10.50;4.00;;;;;;;0.60;100.00;97606.69;106697;1264;138614;-72
2023/02/02 06:21:29;;;;;;;13.10;5.30;;;;;;;0.60;100.00;97602.60;106623;1280;25352;-71
2023/02/02 06:23:57;;;;;;;10.80;4.50;;;;;;;0.61;100.00;97603.52;106662;1276;138869;-73
2023/02/02 06:26:25;;;;;;;9.70;4.60;;;;;;;0.62;100.00;97607.57;106763;1280;25364;-72
2023/02/02 06:28:53;;;;;;;9.50;4.30;;;;;;;0.62;100.00;97604.11;106606;1263;22732;-72
2023/02/02 06:31:20;;;;;;;10.80;4.40;;;;;;;0.64;100.00;97597.30;106396;1283;139324;-72
2023/02/02 06:33:53;;;;;;;11.20;4.90;;;;;;;0.65;100.00;97598.45;106522;1283;22543;-72
2023/02/02 06:36:20;;;;;;;11.60;4.10;;;;;;;0.65;100.00;97585.97;106451;1283;138952;-72
2023/02/02 06:38:51;;;;;;;14.30;4.80;;;;;;;0.64;100.00;97579.73;108040;1261;22536;-72
2023/02/02 06:41:22;;;;;;;12.50;4.20;;;;;;;0.63;100.00;97582.95;106672;1282;22538;-72
2023/02/02 06:43:49;;;;;;;9.90;4.60;;;;;;;0.63;100.00;97588.96;106689;1282;138652;-72
2023/02/02 06:46:16;;;;;;;9.10;4.90;;;;;;;0.64;100.00;97590.13;106731;1282;24234;-72
2023/02/02 06:48:43;;;;;;;12.60;4.70;;;;;;;0.66;100.00;97587.91;106469;1281;138826;-72
2023/02/02 06:51:10;;;;;;;10.20;4.80;;;;;;;0.68;100.00;97587.13;106527;1283;23372;-72
2023/02/02 06:53:37;;;;;;;9.10;5.00;;;;;;;0.69;100.00;97586.59;106431;1283;138483;-72
2023/02/02 06:56:06;;;;;;;10.10;4.50;;;;;;;0.71;100.00;97588.08;106537;1283;22570;-72
2023/02/02 06:58:33;;;;;;;14.50;4.60;;;;;;;0.73;100.00;97591.89;106726;1261;22537;-72
2023/02/02 07:01:09;;;;;;;13.30;3.80;;;;;;;0.75;100.00;97589.04;106544;1276;139035;-72
2023/02/02 07:03:36;;;;;;;11.00;3.90;;;;;;;0.77;100.00;97588.67;107744;1275;25307;-72
2023/02/02 07:06:19;;;;;;;11.70;4.60;;;;;;;0.78;100.00;97594.33;107371;1282;138957;-72
2023/02/02 07:08:47;;;;;;;12.70;4.10;;;;;;;0.79;100.00;97599.11;107752;1270;25291;-72
2023/02/02 07:11:15;;;;;;;9.80;4.20;;;;;;;0.80;100.00;97604.48;106478;1270;23204;-72
2023/02/02 07:13:44;;;;;;;11.30;3.90;;;;;;;0.81;99.98;97603.44;106393;1281;138407;-72
2023/02/02 07:16:12;;;;;;;11.60;4.50;;;;;;;0.82;99.97;97608.52;106597;1276;22540;-72
2023/02/02 07:18:39;;;;;;;8.00;3.90;;;;;;;0.82;99.89;97609.95;106635;1269;22534;-72
2023/02/02 07:21:14;;;;;;;13.30;5.10;;;;;;;0.83;99.83;97607.48;107006;1268;138695;-72
2023/02/02 07:23:41;;;;;;;10.10;4.40;;;;;;;0.83;99.88;97609.62;106756;1268;22587;-72
2023/02/02 07:26:09;;;;;;;8.00;4.30;;;;;;;0.83;99.82;97611.16;107233;1273;138375;-72
2023/02/02 07:28:36;;;;;;;13.70;5.60;;;;;;;0.82;99.59;97611.11;107078;1276;24333;-73
2023/02/02 07:31:16;;;;;;;15.00;4.80;;;;;;;0.82;99.54;97610.23;106839;1259;22540;-72
2023/02/02 07:33:44;;;;;;;9.90;4.90;;;;;;;0.82;99.53;97606.87;106613;1267;25203;-72
2023/02/02 07:36:15;;;;;;;13.10;6.20;;;;;;;0.80;99.61;97609.45;106941;1279;24312;-72
2023/02/02 07:38:43;;;;;;;9.20;5.00;;;;;;;0.81;99.72;97610.12;106721;1272;137995;-72
2023/02/02 07:41:10;;;;;;;9.50;4.40;;;;;;;0.80;99.75;97606.56;106589;1264;22973;-72
2023/02/02 07:43:37;;;;;;;15.50;6.10;;;;;;;0.81;99.90;97605.77;106450;1283;138581;-72
2023/02/02 07:46:08;;;;;;;9.00;5.30;;;;;;;0.81;99.82;97601.66;106673;1283;24245;-72
2023/02/02 07:48:36;;;;;;;11.60;4.20;;;;;;;0.82;99.85;97603.89;106683;1283;23940;-71
2023/02/02 07:51:05;;;;;;;11.60;4.30;;;;;;;0.81;99.85;97598.60;106463;1278;138408;-72
2023/02/02 07:53:33;;;;;;;9.70;4.10;;;;;;;0.80;99.88;97596.01;107467;1275;22439;-73
2023/02/02 07:56:20;;;;;;;8.20;3.20;;;;;;;0.80;99.90;97594.23;107901;1275;137886;-71
2023/02/02 07:58:47;;;;;;;8.30;3.40;;;;;;;0.79;100.00;97600.30;106755;1282;22552;-72
2023/02/02 16:04:23;;;;;;;6.20;2.10;;;;;;;1.55;81.11;98094.24;105267;1298;545631;-74
2023/02/02 16:07:01;;;;;;;2.60;1.20;;;;;;;1.47;79.85;98102.59;106427;1289;22572;-73
2023/02/02 16:09:34;;;;;;;5.20;1.70;;;;;;;1.43;79.69;98108.00;105985;1285;24343;-73
2023/02/02 16:12:04;;;;;;;5.80;2.00;;;;;;;1.39;79.88;98111.49;106101;1287;138159;-73
2023/02/02 16:14:38;;;;;;;4.60;2.20;;;;;;;1.36;80.17;98118.65;105661;1294;22671;-72
2023/02/02 16:17:12;;;;;;;3.90;2.20;;;;;;;1.32;80.24;98121.04;106276;1290;209459;-73
2023/02/02 16:19:42;;;;;;;5.90;2.70;;;;;;;1.30;80.37;98127.63;106033;1291;22707;-73
2023/02/02 16:22:15;;;;;;;5.10;2.40;;;;;;;1.28;80.53;98140.00;105942;1291;137647;-73
2023/02/02 16:24:48;;;;;;;6.40;3.50;;;;;;;1.27;80.64;98141.92;105807;1291;26522;-73
2023/02/02 16:27:25;;;;;;;5.00;2.40;;;;;;;1.27;81.09;98157.68;106138;1290;23557;-72
2023/02/02 16:29:57;;;;;;;7.80;2.10;;;;;;;1.27;81.03;98161.94;105806;1292;138024;-73
2023/02/02 16:32:30;;;;;;;6.60;2.60;;;;;;;1.29;81.28;98167.78;106193;1292;24187;-73
2023/02/02 16:34:59;;;;;;;10.60;4.30;;;;;;;1.31;81.68;98173.95;105715;1281;138228;-73
2023/02/02 16:37:32;;;;;;;17.80;6.00;;;;;;;1.33;81.71;98179.63;105772;1293;23043;-73
2023/02/02 16:40:25;;;;;;;9.60;4.40;;;;;;;1.34;81.76;98184.16;105781;1293;24221;-73
2023/02/02 16:43:18;;;;;;;9.40;3.20;;;;;;;1.36;80.99;98186.48;106021;1293;22663;-73
2023/02/02 16:45:49;;;;;;;6.60;3.00;;;;;;;1.37;81.20;98189.05;106133;1281;24409;-73
2023/02/02 16:48:25;;;;;;;9.10;3.30;;;;;;;1.38;80.68;98197.95;105973;1288;137806;-73
2023/02/02 16:51:02;;;;;;;6.40;3.10;;;;;;;1.40;79.85;98205.73;105746;1292;23925;-73
2023/02/02 16:53:30;;;;;;;6.60;3.50;;;;;;;1.42;79.81;98208.44;105618;1292;138485;-73
2023/02/02 16:55:58;;;;;;;7.90;3.50;;;;;;;1.42;79.59;98225.59;105666;1278;25078;-72
2023/02/02 16:58:26;;;;;;;7.30;2.80;;;;;;;1.41;79.07;98237.52;105654;1294;137948;-73
2023/02/02 17:01:04;;;;;;;8.50;2.90;;;;;;;1.40;79.34;98240.30;105676;1294;24360;-73
2023/02/02 17:03:35;;;;;;;7.40;3.00;;;;;;;1.37;79.14;98240.33;105738;1293;22673;-73
2023/02/02 17:06:04;;;;;;;7.50;3.50;;;;;;;1.33;79.31;98245.45;105763;1275;137395;-73
2023/02/02 17:08:34;;;;;;;10.30;4.00;;;;;;;1.29;79.32;98240.34;105971;1279;24291;-74
2023/02/02 17:11:19;;;;;;;10.60;4.00;;;;;;;1.26;79.49;98243.73;105827;1288;137865;-73
2023/02/02 17:13:46;;;;;;;5.20;2.90;;;;;;;1.21;79.76;98245.93;105964;1292;24211;-73
2023/02/02 17:16:17;;;;;;;9.00;3.00;;;;;;;1.18;79.22;98249.66;105844;1280;23186;-73
2023/02/02 17:18:45;;;;;;;8.20;3.50;;;;;;;1.17;79.36;98254.98;105891;1293;25425;-72
2023/02/02 17:21:16;;;;;;;6.80;3.20;;;;;;;1.15;79.16;98259.66;105921;1294;24262;-73
2023/02/02 17:23:44;;;;;;;5.90;3.20;;;;;;;1.14;79.28;98263.69;105570;1293;137415;-73
2023/02/02 17:26:11;;;;;;;6.40;3.10;;;;;;;1.13;79.30;98264.38;105727;1279;22594;-73
2023/02/02 17:28:40;;;;;;;6.70;3.30;;;;;;;1.12;79.52;98275.77;105704;1292;137257;-73
2023/02/02 17:31:16;;;;;;;6.60;3.10;;;;;;;1.12;79.53;98276.86;105878;1292;22664;-73
2023/02/02 17:33:43;;;;;;;6.60;3.00;;;;;;;1.11;79.43;98285.90;105807;1292;25316;-73
2023/02/02 17:36:12;;;;;;;5.20;3.10;;;;;;;1.13;79.55;98288.02;105793;1294;137375;-73
2023/02/02 17:38:39;;;;;;;4.50;2.00;;;;;;;1.15;80.26;98291.14;105773;1291;22700;-73
2023/02/02 17:41:09;;;;;;;4.70;2.70;;;;;;;1.16;79.55;98296.06;105582;1294;139398;-73
2023/02/02 17:43:36;;;;;;;4.40;2.50;;;;;;;1.17;80.11;98305.60;105812;1285;22686;-74
2023/02/02 17:46:04;;;;;;;5.20;2.90;;;;;;;1.20;80.56;98312.28;107009;1275;22601;-73
2023/02/02 17:48:34;;;;;;;6.30;2.60;;;;;;;1.22;80.10;98315.98;107452;1285;137739;-73
2023/02/02 17:51:05;;;;;;;5.90;2.90;;;;;;;1.21;79.54;98319.33;107781;1283;23167;-74
2023/02/02 17:53:33;;;;;;;7.50;3.20;;;;;;;1.21;79.37;98324.55;106560;1285;137219;-73
2023/02/02 17:56:00;;;;;;;6.20;3.00;;;;;;;1.20;79.36;98338.35;106231;1282;24506;-73
2023/02/02 17:58:26;;;;;;;4.40;2.90;;;;;;;1.18;79.29;98343.21;106774;1289;139369;-73
2023/02/02 18:00:57;;;;;;;5.00;2.70;;;;;;;1.16;79.66;98345.95;106331;1292;24419;-73
2023/02/02 18:03:32;;;;;;;5.90;2.80;;;;;;;1.13;79.52;98344.43;107171;1291;24263;-73
2023/02/02 18:06:01;;;;;;;6.70;2.90;;;;;;;1.12;79.41;98348.67;105992;1282;137506;-73
2023/02/02 18:08:30;;;;;;;6.70;3.30;;;;;;;1.12;79.69;98354.60;105932;1291;22617;-73
2023/02/02 18:10:58;;;;;;;7.00;3.10;;;;;;;1.10;79.53;98356.94;106541;1282;139849;-74
2023/02/02 18:13:26;;;;;;;5.30;2.30;;;;;;;1.09;79.37;98361.05;108628;1282;23295;-73
2023/02/02 18:15:54;;;;;;;7.20;3.20;;;;;;;1.08;79.63;98362.19;106217;1275;22626;-73
2023/02/02 18:18:22;;;;;;;8.20;3.70;;;;;;;1.07;79.59;98364.73;106710;1285;137758;-74
2023/02/02 18:20:49;;;;;;;9.20;3.40;;;;;;;1.06;79.34;98366.20;108477;1283;22420;-72
2023/02/02 18:23:17;;;;;;;8.10;3.30;;;;;;;1.05;79.49;98363.10;106674;1289;138596;-71
2023/02/02 18:25:45;;;;;;;9.40;3.00;;;;;;;1.06;78.99;98368.77;105972;1267;22550;-71
2023/02/02 18:28:14;;;;;;;6.90;2.90;;;;;;;1.05;79.18;98368.84;106181;1289;22574;-71
2023/02/02 18:30:41;;;;;;;5.00;2.40;;;;;;;1.03;78.94;98371.28;106221;1269;137033;-72
2023/02/02 18:33:10;;;;;;;6.70;3.00;;;;;;;1.01;78.32;98375.23;106303;1289;22612;-71
2023/02/02 18:35:41;;;;;;;8.90;3.90;;;;;;;1.00;78.64;98383.23;106077;1283;137203;-71
2023/02/02 18:38:09;;;;;;;12.90;4.10;;;;;;;0.99;78.68;98383.05;106345;1271;22520;-74
2023/02/02 18:40:36;;;;;;;11.10;4.40;;;;;;;0.98;78.46;98387.67;106624;1284;138613;-72
2023/02/02 18:43:03;;;;;;;12.20;5.10;;;;;;;0.96;79.02;98389.41;106070;1284;24378;-72
2023/02/02 18:45:33;;;;;;;12.40;5.70;;;;;;;0.95;78.76;98396.38;105986;1290;23916;-71
2023/02/02 18:48:00;;;;;;;12.50;4.80;;;;;;;0.93;78.30;98401.95;106203;1270;137757;-72
2023/02/02 18:50:27;;;;;;;7.40;3.60;;;;;;;0.92;78.38;98411.01;106242;1290;22561;-71
2023/02/02 18:52:55;;;;;;;8.80;4.30;;;;;;;0.90;78.27;98424.67;106003;1286;138104;-72
2023/02/02 18:55:22;;;;;;;6.70;3.30;;;;;;;0.88;78.52;98425.92;106206;1290;22665;-71
2023/02/02 18:57:49;;;;;;;8.40;3.70;;;;;;;0.86;78.54;98435.88;105789;1283;23330;-72
2023/02/02 19:00:18;;;;;;;8.70;3.60;;;;;;;0.84;78.40;98442.53;105844;1290;137620;-71
2023/02/02 19:02:45;;;;;;;6.50;3.20;;;;;;;0.82;78.55;98444.52;105931;1291;22691;-71
2023/02/02 19:07:57;;;;;;;7.80;3.70;;;;;;;0.80;78.97;98459.66;106526;1273;23029;-72
2023/02/02 19:10:26;;;;;;;8.40;3.60;;;;;;;0.78;79.22;98465.73;106767;1285;138351;-73
2023/02/02 19:13:16;;;;;;;4.20;3.10;;;;;;;0.77;79.65;98467.34;106127;1284;24254;-72
2023/02/02 19:15:46;;;;;;;19.30;9.10;;;;;;;0.75;79.59;98468.05;106064;1291;23720;-72
2023/02/02 19:18:15;;;;;;;9.50;4.70;;;;;;;0.74;79.65;98471.20;106356;1277;137638;-72
2023/02/02 19:20:43;;;;;;;8.20;3.70;;;;;;;0.73;79.59;98471.71;106516;1289;25321;-72
2023/02/02 19:23:28;;;;;;;6.30;3.30;;;;;;;0.71;79.83;98475.48;105852;1283;138711;-72
2023/02/02 19:25:55;;;;;;;8.60;3.70;;;;;;;0.70;80.03;98479.19;105959;1292;22730;-72
2023/02/02 19:28:28;;;;;;;7.20;3.30;;;;;;;0.69;80.40;98487.87;105977;1280;137685;-72
2023/02/02 19:30:57;;;;;;;7.60;3.40;;;;;;;0.68;80.35;98493.54;106099;1273;23136;-73
2023/02/02 19:33:39;;;;;;;9.50;3.40;;;;;;;0.68;80.56;98500.37;106042;1285;22668;-72
2023/02/02 19:36:15;;;;;;;7.60;3.40;;;;;;;0.65;81.06;98502.10;107053;1283;138453;-73
2023/02/02 19:38:44;;;;;;;8.50;3.90;;;;;;;0.63;81.33;98504.70;106458;1275;25424;-73
2023/02/02 19:41:17;;;;;;;8.10;3.70;;;;;;;0.61;81.46;98504.92;105911;1291;137726;-73
2023/02/02 19:43:46;;;;;;;7.80;3.20;;;;;;;0.58;81.89;98504.53;105896;1292;22814;-73
2023/02/02 19:46:17;;;;;;;7.50;3.30;;;;;;;0.57;82.15;98508.77;105939;1292;24362;-73
2023/02/02 19:48:45;;;;;;;9.00;4.30;;;;;;;0.55;82.56;98520.06;106372;1273;22556;-73
2023/02/02 19:51:43;;;;;;;6.30;4.00;;;;;;;0.53;82.60;98523.92;106409;1286;24565;-73
2023/02/02 19:54:17;;;;;;;18.50;6.10;;;;;;;0.50;82.89;98528.85;106468;1289;137461;-73
2023/02/02 19:56:44;;;;;;;15.70;5.10;;;;;;;0.49;82.56;98531.53;106114;1284;22547;-72